Time;durP1;ratioP1;P1;durP2;ratioP2;P2;SDS_P1;SDS_P2;PMS_P1;PMS_P2;Temp;Humidity;BMP_temperature;BMP_pressure;BME280_temperature;BME280_humidity;BME280_pressure;Samples;Min_cycle;Max_cycle;Signal;HPM_P1;HPM_P2
2023/09/21 00:00:21;;;;;;;14.15;6.35;;;;;;;;;;5102064;28;20094;-73
2023/09/21 00:02:56;;;;;;;16.02;7.32;;;;;;;;;;5102403;28;20052;-73
2023/09/21 00:05:31;;;;;;;11.43;6.45;;;;;;;;;;5082850;28;20779;-75
2023/09/21 00:08:03;;;;;;;13.23;6.22;;;;;;;;;;5083311;28;20418;-73
2023/09/21 00:10:34;;;;;;;14.70;7.03;;;;;;;;;;5101991;28;20047;-77
2023/09/21 00:13:05;;;;;;;14.40;6.63;;;;;;;;;;5101960;28;20418;-73
2023/09/21 00:15:36;;;;;;;12.40;6.40;;;;;;;;;;5102188;28;20051;-74
2023/09/21 00:18:08;;;;;;;13.05;6.38;;;;;;;;;;5090291;28;20054;-75
2023/09/21 00:23:14;;;;;;;12.40;6.40;;;;;;;;;;5089718;28;20048;-73
2023/09/21 00:25:45;;;;;;;16.48;6.78;;;;;;;;;;5089903;28;20047;-77
2023/09/21 00:28:19;;;;;;;15.60;6.85;;;;;;;;;;5091250;28;20047;-75
2023/09/21 00:30:57;;;;;;;16.50;6.82;;;;;;;;;;5090552;28;20411;-77
2023/09/21 00:33:28;;;;;;;20.45;6.57;;;;;;;;;;5090123;28;20071;-75
2023/09/21 00:36:04;;;;;;;19.30;6.68;;;;;;;;;;5092797;28;20052;-74
2023/09/21 00:38:35;;;;;;;18.17;6.97;;;;;;;;;;5102273;28;20051;-75
2023/09/21 00:41:05;;;;;;;20.35;6.80;;;;;;;;;;5086663;28;20048;-76
2023/09/21 00:43:36;;;;;;;18.60;6.70;;;;;;;;;;5105401;28;20051;-75
2023/09/21 00:46:08;;;;;;;14.15;6.00;;;;;;;;;;5087407;28;20789;-75
2023/09/21 00:48:42;;;;;;;13.98;6.47;;;;;;;;;;5082717;28;20514;-73
2023/09/21 00:51:16;;;;;;;16.52;6.78;;;;;;;;;;5093383;28;20055;-75
2023/09/21 00:53:47;;;;;;;12.50;6.07;;;;;;;;;;5085454;28;20051;-73
2023/09/21 00:56:20;;;;;;;13.68;5.80;;;;;;;;;;5065794;28;20055;-74
2023/09/21 00:58:53;;;;;;;13.82;6.55;;;;;;;;;;5065741;28;20052;-76
2023/09/21 01:01:27;;;;;;;16.70;6.80;;;;;;;;;;5084372;28;20040;-74
2023/09/21 01:04:07;;;;;;;14.90;6.65;;;;;;;;;;5066269;28;20052;-74
2023/09/21 01:06:42;;;;;;;18.70;6.40;;;;;;;;;;5085668;28;20052;-74
2023/09/21 01:09:17;;;;;;;17.63;6.32;;;;;;;;;;5085095;28;20052;-74
2023/09/21 01:11:48;;;;;;;17.73;6.93;;;;;;;;;;5104435;28;20070;-75
2023/09/21 01:14:19;;;;;;;16.77;6.40;;;;;;;;;;5104521;28;20062;-74
2023/09/21 01:16:50;;;;;;;15.40;5.57;;;;;;;;;;5104668;28;20054;-74
2023/09/21 01:19:23;;;;;;;17.25;6.43;;;;;;;;;;5104821;28;20052;-74
2023/09/21 01:21:54;;;;;;;14.65;5.75;;;;;;;;;;5104357;28;20043;-74
2023/09/21 01:24:27;;;;;;;19.48;5.97;;;;;;;;;;5103460;28;20430;-73
2023/09/21 01:26:57;;;;;;;14.73;6.70;;;;;;;;;;5086151;28;20079;-75
2023/09/21 01:29:30;;;;;;;12.88;6.18;;;;;;;;;;5104627;28;20051;-76
2023/09/21 01:32:00;;;;;;;18.98;7.18;;;;;;;;;;5103525;28;20513;-73
2023/09/21 01:34:31;;;;;;;14.88;6.60;;;;;;;;;;5104553;28;20039;-73
2023/09/21 01:37:02;;;;;;;13.35;6.63;;;;;;;;;;5104624;28;20536;-73
2023/09/21 01:39:33;;;;;;;15.90;6.10;;;;;;;;;;5104128;28;20047;-74
2023/09/21 01:42:03;;;;;;;18.70;6.20;;;;;;;;;;5104298;28;20043;-74
2023/09/21 01:44:34;;;;;;;16.83;6.30;;;;;;;;;;5084889;28;20047;-74
2023/09/21 01:47:11;;;;;;;14.40;5.95;;;;;;;;;;5104828;28;20051;-73
2023/09/21 01:49:44;;;;;;;20.90;6.63;;;;;;;;;;5105078;28;20498;-73
2023/09/21 01:52:14;;;;;;;25.77;6.75;;;;;;;;;;5103798;28;20048;-73
2023/09/21 01:54:44;;;;;;;21.83;6.57;;;;;;;;;;5104663;28;20048;-74
2023/09/21 01:57:15;;;;;;;19.42;7.18;;;;;;;;;;5104306;28;20055;-73
2023/09/21 01:59:46;;;;;;;17.33;7.20;;;;;;;;;;5068161;28;20055;-74
2023/09/21 02:02:20;;;;;;;18.10;6.50;;;;;;;;;;5103810;28;20395;-74
2023/09/21 02:04:52;;;;;;;13.27;6.05;;;;;;;;;;5104506;28;20485;-73
2023/09/21 02:07:22;;;;;;;16.83;6.78;;;;;;;;;;5084967;28;20051;-74
2023/09/21 02:09:55;;;;;;;16.77;6.55;;;;;;;;;;5103915;28;20058;-73
2023/09/21 02:12:26;;;;;;;15.00;6.57;;;;;;;;;;5103778;28;20054;-73
2023/09/21 02:14:58;;;;;;;16.08;6.70;;;;;;;;;;5104033;28;20043;-73
2023/09/21 02:17:29;;;;;;;17.75;6.53;;;;;;;;;;5084362;28;20055;-73
2023/09/21 02:20:00;;;;;;;19.20;6.07;;;;;;;;;;5085205;28;20051;-73
2023/09/21 02:22:31;;;;;;;15.55;6.10;;;;;;;;;;5103682;28;20048;-74
2023/09/21 02:25:05;;;;;;;15.93;6.15;;;;;;;;;;5103488;28;20113;-74
2023/09/21 02:27:49;;;;;;;19.10;6.63;;;;;;;;;;5103567;28;20052;-73
2023/09/21 02:30:24;;;;;;;16.83;6.75;;;;;;;;;;5103093;28;20507;-73
2023/09/21 02:32:55;;;;;;;18.45;7.00;;;;;;;;;;5104311;28;20044;-73
2023/09/21 02:35:27;;;;;;;16.33;6.70;;;;;;;;;;5103905;28;20070;-73
2023/09/21 02:37:58;;;;;;;16.38;6.85;;;;;;;;;;5103859;28;20401;-74
2023/09/21 02:40:29;;;;;;;17.02;6.95;;;;;;;;;;5083943;28;20051;-74
2023/09/21 02:42:59;;;;;;;15.70;7.25;;;;;;;;;;5068772;28;20060;-73
2023/09/21 02:45:30;;;;;;;15.45;6.18;;;;;;;;;;5084333;28;20056;-73
2023/09/21 02:48:02;;;;;;;23.60;6.75;;;;;;;;;;5103091;28;20039;-74
2023/09/21 02:50:34;;;;;;;14.00;6.50;;;;;;;;;;5084007;28;20418;-73
2023/09/21 02:53:08;;;;;;;15.82;6.25;;;;;;;;;;5083710;28;20044;-74
2023/09/21 02:55:52;;;;;;;19.17;6.22;;;;;;;;;;5084490;28;20059;-73
2023/09/21 02:58:26;;;;;;;20.85;6.57;;;;;;;;;;5084735;28;20051;-74
2023/09/21 03:01:01;;;;;;;10.63;6.25;;;;;;;;;;5084474;28;20055;-73
2023/09/21 03:03:32;;;;;;;11.73;6.30;;;;;;;;;;5083740;28;20098;-73
2023/09/21 03:06:06;;;;;;;17.05;6.43;;;;;;;;;;5103578;28;20372;-73
2023/09/21 03:08:38;;;;;;;17.08;6.07;;;;;;;;;;5102907;28;20043;-73
2023/09/21 03:14:15;;;;;;;16.52;6.32;;;;;;;;;;5102819;28;20044;-73
2023/09/21 03:16:47;;;;;;;13.50;6.43;;;;;;;;;;5084625;28;20055;-73
2023/09/21 03:19:18;;;;;;;15.32;7.10;;;;;;;;;;5083202;28;20055;-73
2023/09/21 03:21:50;;;;;;;14.27;6.65;;;;;;;;;;5083881;28;20062;-74
2023/09/21 03:24:20;;;;;;;16.27;6.82;;;;;;;;;;5083356;28;20052;-74
2023/09/21 03:26:51;;;;;;;13.30;5.88;;;;;;;;;;5102227;28;20494;-73
2023/09/21 03:29:21;;;;;;;14.73;5.53;;;;;;;;;;5102492;28;20521;-73
2023/09/21 03:31:55;;;;;;;13.40;6.25;;;;;;;;;;5084305;28;20071;-73
2023/09/21 03:34:26;;;;;;;13.65;6.88;;;;;;;;;;5083968;28;20817;-73
2023/09/21 03:36:57;;;;;;;14.02;6.60;;;;;;;;;;5102417;28;20047;-73
2023/09/21 03:39:28;;;;;;;12.30;6.55;;;;;;;;;;5084338;28;20059;-74
2023/09/21 03:41:59;;;;;;;19.23;6.40;;;;;;;;;;5102870;28;20564;-73
2023/09/21 03:44:30;;;;;;;12.98;6.20;;;;;;;;;;5102052;28;20048;-73
2023/09/21 03:47:00;;;;;;;19.70;6.65;;;;;;;;;;5102763;28;20048;-73
2023/09/21 03:49:34;;;;;;;13.73;6.30;;;;;;;;;;5083219;28;20052;-73
2023/09/21 03:52:05;;;;;;;12.45;5.70;;;;;;;;;;5083108;28;20052;-73
2023/09/21 03:54:36;;;;;;;13.45;6.75;;;;;;;;;;5083942;28;20051;-74
2023/09/21 03:57:08;;;;;;;13.00;6.55;;;;;;;;;;5101871;28;20051;-73
2023/09/21 03:59:40;;;;;;;13.65;6.05;;;;;;;;;;5083064;28;20529;-73
2023/09/21 04:02:11;;;;;;;15.88;6.35;;;;;;;;;;5083714;28;20036;-73
2023/09/21 04:04:41;;;;;;;12.73;5.70;;;;;;;;;;5102400;28;20055;-73
2023/09/21 04:07:12;;;;;;;16.70;6.43;;;;;;;;;;5083929;28;20076;-73
2023/09/21 04:09:46;;;;;;;13.48;5.95;;;;;;;;;;5102403;28;20050;-73
2023/09/21 04:12:17;;;;;;;9.73;5.75;;;;;;;;;;5083803;28;20070;-74
2023/09/21 04:14:47;;;;;;;17.10;6.55;;;;;;;;;;5086230;28;20502;-73
2023/09/21 04:17:18;;;;;;;13.70;6.30;;;;;;;;;;5087149;28;20051;-74
2023/09/21 04:19:55;;;;;;;14.52;6.70;;;;;;;;;;5106823;28;20039;-73
2023/09/21 04:22:26;;;;;;;15.95;7.10;;;;;;;;;;5087144;28;20039;-73
2023/09/21 04:25:01;;;;;;;13.23;6.18;;;;;;;;;;5086673;28;20055;-73
2023/09/21 04:27:32;;;;;;;11.65;6.15;;;;;;;;;;5087527;28;20051;-73
2023/09/21 04:30:03;;;;;;;11.88;6.10;;;;;;;;;;5087029;28;20055;-74
2023/09/21 04:32:36;;;;;;;11.82;6.50;;;;;;;;;;5087063;28;20059;-74
2023/09/21 04:35:07;;;;;;;10.93;5.95;;;;;;;;;;5086962;28;20059;-73
2023/09/21 04:37:40;;;;;;;12.95;6.25;;;;;;;;;;5086802;28;20052;-73
2023/09/21 04:40:12;;;;;;;14.02;5.90;;;;;;;;;;5086670;28;20395;-73
2023/09/21 04:42:46;;;;;;;10.43;6.05;;;;;;;;;;5087638;28;20048;-73
2023/09/21 04:45:20;;;;;;;11.70;6.43;;;;;;;;;;5087208;28;20529;-73
2023/09/21 04:48:00;;;;;;;13.43;6.32;;;;;;;;;;5086037;28;20077;-73
2023/09/21 04:50:35;;;;;;;15.65;6.38;;;;;;;;;;5086856;28;20055;-74
2023/09/21 04:53:06;;;;;;;13.27;6.05;;;;;;;;;;5086515;28;20577;-73
2023/09/21 04:55:37;;;;;;;13.10;7.00;;;;;;;;;;5087467;28;20058;-73
2023/09/21 04:58:07;;;;;;;17.40;6.75;;;;;;;;;;5087025;28;20050;-74
2023/09/21 05:00:39;;;;;;;14.25;6.38;;;;;;;;;;5106097;28;20047;-73
2023/09/21 05:03:10;;;;;;;14.30;6.93;;;;;;;;;;5086714;28;20043;-73
2023/09/21 05:05:41;;;;;;;12.45;6.22;;;;;;;;;;5105366;28;20055;-74
2023/09/21 05:08:11;;;;;;;14.57;6.68;;;;;;;;;;5086252;28;20059;-73
2023/09/21 05:10:42;;;;;;;16.90;6.57;;;;;;;;;;5104881;28;20074;-73
2023/09/21 05:13:13;;;;;;;16.27;6.88;;;;;;;;;;5087462;28;20047;-73
2023/09/21 05:15:46;;;;;;;18.40;6.85;;;;;;;;;;5104813;28;20586;-73
2023/09/21 05:18:17;;;;;;;11.85;6.65;;;;;;;;;;5105127;28;20044;-73
2023/09/21 05:20:47;;;;;;;15.23;6.63;;;;;;;;;;5104976;28;20412;-73
2023/09/21 05:23:17;;;;;;;16.63;6.72;;;;;;;;;;5103959;28;20060;-73
2023/09/21 05:25:48;;;;;;;12.18;5.97;;;;;;;;;;5103383;28;20035;-72
2023/09/21 05:28:19;;;;;;;9.95;6.00;;;;;;;;;;5086196;28;20063;-73
2023/09/21 05:30:54;;;;;;;19.23;5.68;;;;;;;;;;5105273;28;20484;-73
2023/09/21 05:33:24;;;;;;;13.48;5.65;;;;;;;;;;5105149;28;20549;-73
2023/09/21 05:35:56;;;;;;;10.88;6.32;;;;;;;;;;5105306;28;20051;-73
2023/09/21 05:38:26;;;;;;;16.48;6.35;;;;;;;;;;5104535;28;20052;-73
2023/09/21 05:40:56;;;;;;;16.73;6.20;;;;;;;;;;5104432;28;20047;-73
2023/09/21 05:43:29;;;;;;;13.63;5.82;;;;;;;;;;5104514;28;20533;-73
2023/09/21 05:46:00;;;;;;;15.43;5.72;;;;;;;;;;5104494;28;20490;-73
2023/09/21 05:48:31;;;;;;;17.48;6.10;;;;;;;;;;5104420;28;20052;-73
2023/09/21 05:51:04;;;;;;;15.43;6.95;;;;;;;;;;5104505;28;20047;-73
2023/09/21 05:53:35;;;;;;;15.35;6.25;;;;;;;;;;5104613;28;20066;-73
2023/09/21 05:56:06;;;;;;;15.93;6.38;;;;;;;;;;5104542;28;20051;-73
2023/09/21 05:58:36;;;;;;;14.60;6.82;;;;;;;;;;5104153;28;20048;-73
2023/09/21 06:01:07;;;;;;;15.25;6.72;;;;;;;;;;5104968;28;20510;-73
2023/09/21 06:03:38;;;;;;;10.20;6.25;;;;;;;;;;5104666;28;20058;-73
2023/09/21 06:06:09;;;;;;;14.00;6.00;;;;;;;;;;5104996;28;20495;-74
2023/09/21 06:08:40;;;;;;;13.68;6.20;;;;;;;;;;5104829;28;20052;-73
2023/09/21 06:11:10;;;;;;;11.15;5.47;;;;;;;;;;5103163;28;20043;-73
2023/09/21 06:13:42;;;;;;;9.63;5.95;;;;;;;;;;5104046;28;20062;-73
2023/09/21 06:16:13;;;;;;;10.65;5.82;;;;;;;;;;5104380;28;20059;-73
2023/09/21 06:18:43;;;;;;;14.13;5.70;;;;;;;;;;5085208;28;20365;-73
2023/09/21 06:21:14;;;;;;;11.75;6.43;;;;;;;;;;5103458;28;20156;-73
2023/09/21 06:23:45;;;;;;;16.15;5.88;;;;;;;;;;5103855;28;20537;-73
2023/09/21 06:26:16;;;;;;;11.40;5.57;;;;;;;;;;5103616;28;20051;-73
2023/09/21 06:28:47;;;;;;;12.02;6.00;;;;;;;;;;5104549;28;20047;-73
2023/09/21 06:31:21;;;;;;;13.73;6.38;;;;;;;;;;5103351;28;20051;-73
2023/09/21 06:33:58;;;;;;;10.68;6.05;;;;;;;;;;5103417;28;20054;-73
2023/09/21 06:36:29;;;;;;;13.85;5.68;;;;;;;;;;5103365;28;20517;-73
2023/09/21 06:38:59;;;;;;;14.23;6.15;;;;;;;;;;5103766;28;20073;-73
2023/09/21 06:41:30;;;;;;;13.10;6.13;;;;;;;;;;5102101;28;20047;-73
2023/09/21 06:44:00;;;;;;;11.55;6.00;;;;;;;;;;5081886;28;20400;-74
2023/09/21 06:46:32;;;;;;;11.80;5.70;;;;;;;;;;5081299;28;20056;-73
2023/09/21 06:49:04;;;;;;;12.38;5.88;;;;;;;;;;5100540;28;20051;-73
2023/09/21 06:51:39;;;;;;;13.95;5.93;;;;;;;;;;5100621;28;20048;-73
2023/09/21 06:54:09;;;;;;;10.45;5.63;;;;;;;;;;5100641;28;20040;-73
2023/09/21 06:56:39;;;;;;;12.50;6.13;;;;;;;;;;5100211;28;20419;-73
2023/09/21 06:59:10;;;;;;;15.27;6.57;;;;;;;;;;5100147;28;20075;-73
2023/09/21 07:01:40;;;;;;;11.18;6.00;;;;;;;;;;5100216;28;20048;-73
2023/09/21 07:04:11;;;;;;;11.20;6.28;;;;;;;;;;5082357;28;20070;-73
2023/09/21 07:06:42;;;;;;;14.40;6.30;;;;;;;;;;5100221;28;20048;-73
2023/09/21 07:09:13;;;;;;;10.77;5.22;;;;;;;;;;5100113;28;20417;-73
2023/09/21 07:11:44;;;;;;;10.23;5.45;;;;;;;;;;5099881;28;20047;-73
2023/09/21 07:14:14;;;;;;;8.70;5.40;;;;;;;;;;5100245;28;20522;-73
2023/09/21 07:16:44;;;;;;;13.90;5.78;;;;;;;;;;5080904;28;20055;-73
2023/09/21 07:19:15;;;;;;;12.73;5.22;;;;;;;;;;5100355;28;20051;-73
2023/09/21 07:21:46;;;;;;;9.05;5.32;;;;;;;;;;5100033;28;20136;-73
2023/09/21 07:24:16;;;;;;;11.68;5.57;;;;;;;;;;5080780;28;20521;-73
2023/09/21 07:26:46;;;;;;;13.18;6.07;;;;;;;;;;5100270;28;20052;-73
2023/09/21 07:29:17;;;;;;;16.40;5.80;;;;;;;;;;5099871;28;20596;-73
2023/09/21 07:31:48;;;;;;;8.40;5.35;;;;;;;;;;5100066;28;20429;-73
2023/09/21 07:34:18;;;;;;;7.95;5.05;;;;;;;;;;5100217;28;20044;-73
2023/09/21 07:36:48;;;;;;;7.78;4.97;;;;;;;;;;5099205;28;20051;-73
2023/09/21 07:39:18;;;;;;;11.52;5.50;;;;;;;;;;5081117;28;20054;-73
2023/09/21 07:41:49;;;;;;;8.40;4.80;;;;;;;;;;5099250;28;20392;-73
2023/09/21 07:44:22;;;;;;;10.57;4.90;;;;;;;;;;5100009;28;20517;-73
2023/09/21 07:46:53;;;;;;;14.43;4.90;;;;;;;;;;5100373;28;20054;-73
2023/09/21 07:49:25;;;;;;;9.52;5.13;;;;;;;;;;5099205;28;20047;-73
2023/09/21 07:51:56;;;;;;;9.25;4.47;;;;;;;;;;5099359;28;20062;-74
2023/09/21 07:54:29;;;;;;;7.47;5.18;;;;;;;;;;5099488;28;20506;-73
2023/09/21 07:57:00;;;;;;;11.73;4.70;;;;;;;;;;5099521;28;20510;-73
2023/09/21 07:59:31;;;;;;;14.85;5.03;;;;;;;;;;5099495;28;20498;-73
2023/09/21 08:02:03;;;;;;;9.05;4.93;;;;;;;;;;5099565;28;20044;-72
2023/09/21 08:04:33;;;;;;;7.47;4.35;;;;;;;;;;5099959;28;20050;-73
2023/09/21 08:07:05;;;;;;;9.55;4.40;;;;;;;;;;5099632;28;20059;-73
2023/09/21 08:09:36;;;;;;;9.50;4.63;;;;;;;;;;5099213;28;20047;-73
2023/09/21 08:12:11;;;;;;;7.65;4.55;;;;;;;;;;5099060;28;20529;-73
2023/09/21 08:14:41;;;;;;;10.23;4.47;;;;;;;;;;5099645;28;20067;-73
2023/09/21 08:17:11;;;;;;;7.22;4.53;;;;;;;;;;5099664;28;20047;-73
2023/09/21 08:19:42;;;;;;;9.68;4.35;;;;;;;;;;5099972;28;20047;-73
2023/09/21 08:22:14;;;;;;;13.50;5.05;;;;;;;;;;5099579;28;20056;-72
2023/09/21 08:24:44;;;;;;;7.75;4.93;;;;;;;;;;5099319;28;20498;-73
2023/09/21 08:27:15;;;;;;;11.20;5.22;;;;;;;;;;5099124;28;20048;-73
2023/09/21 08:29:45;;;;;;;8.82;4.78;;;;;;;;;;5099004;28;20055;-73
2023/09/21 08:32:16;;;;;;;10.30;5.25;;;;;;;;;;5099305;28;20434;-73
2023/09/21 08:34:48;;;;;;;9.85;4.47;;;;;;;;;;5099082;28;20050;-73
2023/09/21 08:37:18;;;;;;;7.00;4.53;;;;;;;;;;5099238;28;20053;-73
2023/09/21 08:39:48;;;;;;;11.90;5.20;;;;;;;;;;5099475;28;20063;-73
2023/09/21 08:42:18;;;;;;;6.47;4.53;;;;;;;;;;5080599;28;20058;-73
2023/09/21 08:44:50;;;;;;;7.60;4.90;;;;;;;;;;5099113;28;20529;-73
2023/09/21 08:47:22;;;;;;;6.50;4.47;;;;;;;;;;5099500;28;20391;-73
2023/09/21 08:50:04;;;;;;;12.43;5.18;;;;;;;;;;5099338;28;20066;-73
2023/09/21 08:52:36;;;;;;;8.88;4.50;;;;;;;;;;5098814;28;20047;-73
2023/09/21 08:55:10;;;;;;;11.82;4.18;;;;;;;;;;5099455;28;20056;-73
2023/09/21 08:57:41;;;;;;;12.73;4.47;;;;;;;;;;5099097;28;20062;-73
2023/09/21 09:00:14;;;;;;;6.22;4.72;;;;;;;;;;5098844;28;20052;-73
2023/09/21 09:02:46;;;;;;;8.55;4.75;;;;;;;;;;5083174;28;21082;-74
2023/09/21 09:05:18;;;;;;;6.63;4.28;;;;;;;;;;5102790;28;20047;-73
2023/09/21 09:07:48;;;;;;;8.27;4.40;;;;;;;;;;5102821;28;20043;-74
2023/09/21 09:10:18;;;;;;;10.05;4.97;;;;;;;;;;5102732;28;20050;-73
2023/09/21 09:13:02;;;;;;;10.10;4.72;;;;;;;;;;5102506;28;20044;-73
2023/09/21 09:15:37;;;;;;;6.55;4.60;;;;;;;;;;5102437;28;20048;-73
2023/09/21 09:18:09;;;;;;;8.50;4.85;;;;;;;;;;5102936;28;20046;-74
2023/09/21 09:20:42;;;;;;;8.02;4.50;;;;;;;;;;5102053;28;20522;-73
2023/09/21 09:23:14;;;;;;;10.25;5.20;;;;;;;;;;5102088;28;20049;-73
2023/09/21 09:25:49;;;;;;;6.97;4.45;;;;;;;;;;5102826;28;20048;-73
2023/09/21 09:28:20;;;;;;;8.45;4.60;;;;;;;;;;5084084;28;20055;-73
2023/09/21 09:30:52;;;;;;;13.57;5.10;;;;;;;;;;5101649;28;20043;-72
2023/09/21 09:33:25;;;;;;;19.98;5.00;;;;;;;;;;5101624;28;20509;-73
2023/09/21 09:35:57;;;;;;;10.68;4.80;;;;;;;;;;5101948;28;20047;-73
2023/09/21 09:38:28;;;;;;;9.48;4.90;;;;;;;;;;5084452;28;20690;-75
2023/09/21 09:41:06;;;;;;;11.13;4.80;;;;;;;;;;5101949;28;20051;-80
2023/09/21 09:43:39;;;;;;;12.77;4.63;;;;;;;;;;5101246;28;20427;-74
2023/09/21 09:46:12;;;;;;;6.15;4.20;;;;;;;;;;5101824;28;20418;-73
2023/09/21 09:48:43;;;;;;;8.35;4.68;;;;;;;;;;5083766;28;20054;-73
2023/09/21 09:51:21;;;;;;;7.40;4.53;;;;;;;;;;5101818;28;20039;-74
2023/09/21 09:53:54;;;;;;;10.15;5.40;;;;;;;;;;5082613;28;20060;-76
2023/09/21 09:56:26;;;;;;;11.13;4.85;;;;;;;;;;5102696;28;20043;-74
2023/09/21 09:58:58;;;;;;;6.60;4.88;;;;;;;;;;5102807;28;20051;-73
2023/09/21 10:01:29;;;;;;;9.65;4.80;;;;;;;;;;5083643;28;20082;-73
2023/09/21 10:04:01;;;;;;;12.15;5.15;;;;;;;;;;5085347;28;20735;-73
2023/09/21 10:06:35;;;;;;;10.05;4.78;;;;;;;;;;5102198;28;20070;-74
2023/09/21 10:09:11;;;;;;;15.05;7.57;;;;;;;;;;5101781;28;20047;-73
2023/09/21 10:11:49;;;;;;;17.92;7.03;;;;;;;;;;5104485;28;20047;-73
2023/09/21 10:14:24;;;;;;;11.75;6.43;;;;;;;;;;5102894;28;20078;-74
2023/09/21 10:16:57;;;;;;;16.23;6.28;;;;;;;;;;5083516;28;20075;-74
2023/09/21 10:19:29;;;;;;;18.92;6.50;;;;;;;;;;5101338;28;20524;-73
2023/09/21 10:22:00;;;;;;;14.38;6.70;;;;;;;;;;5101523;28;20055;-78
2023/09/21 10:24:30;;;;;;;15.63;6.70;;;;;;;;;;5101480;28;20050;-74
2023/09/21 10:27:06;;;;;;;23.27;13.95;;;;;;;;;;5101498;28;20044;-73
2023/09/21 10:29:37;;;;;;;24.42;8.20;;;;;;;;;;5101098;28;20051;-73
2023/09/21 10:32:07;;;;;;;14.68;6.38;;;;;;;;;;5083186;28;20478;-74
2023/09/21 10:34:48;;;;;;;11.68;6.50;;;;;;;;;;5101456;28;20052;-74
2023/09/21 10:37:29;;;;;;;13.60;6.20;;;;;;;;;;5101028;28;20059;-73
2023/09/21 10:39:59;;;;;;;10.70;6.60;;;;;;;;;;5100772;28;20044;-75
2023/09/21 10:42:33;;;;;;;16.95;6.13;;;;;;;;;;5100165;28;20491;-74
2023/09/21 10:45:09;;;;;;;9.82;6.22;;;;;;;;;;5100548;28;20048;-73
2023/09/21 10:47:49;;;;;;;14.48;6.65;;;;;;;;;;5079760;28;20043;-73
2023/09/21 10:50:21;;;;;;;9.98;5.47;;;;;;;;;;5080230;28;20055;-74
2023/09/21 10:52:55;;;;;;;8.70;4.95;;;;;;;;;;5080225;28;20055;-73
2023/09/21 10:55:26;;;;;;;12.45;5.47;;;;;;;;;;5079777;28;20389;-78
2023/09/21 10:57:58;;;;;;;10.60;4.75;;;;;;;;;;5080126;28;20878;-75
2023/09/21 11:00:28;;;;;;;12.27;5.35;;;;;;;;;;5080327;28;20051;-74
2023/09/21 11:02:59;;;;;;;8.32;4.32;;;;;;;;;;5045104;28;20595;-74
2023/09/21 11:05:31;;;;;;;7.55;4.57;;;;;;;;;;5080267;28;20055;-73
2023/09/21 11:08:02;;;;;;;13.50;4.07;;;;;;;;;;5079954;28;20031;-75
2023/09/21 11:10:34;;;;;;;11.05;3.95;;;;;;;;;;5080303;28;20048;-75
2023/09/21 11:13:04;;;;;;;8.63;4.38;;;;;;;;;;5061896;28;20043;-74
2023/09/21 11:15:34;;;;;;;8.80;4.65;;;;;;;;;;5079590;28;20051;-73
2023/09/21 11:18:06;;;;;;;8.18;4.43;;;;;;;;;;5061005;28;20052;-74
2023/09/21 11:20:36;;;;;;;9.50;4.32;;;;;;;;;;5079870;28;20044;-74
2023/09/21 11:23:09;;;;;;;9.55;4.10;;;;;;;;;;5078838;28;20056;-74
2023/09/21 11:25:41;;;;;;;6.95;3.95;;;;;;;;;;5078938;28;20521;-72
2023/09/21 11:28:13;;;;;;;6.50;3.90;;;;;;;;;;5079495;28;20044;-72
2023/09/21 11:30:43;;;;;;;6.05;3.70;;;;;;;;;;5079712;28;20051;-74
2023/09/21 11:33:13;;;;;;;13.32;4.28;;;;;;;;;;5079228;28;20521;-76
2023/09/21 11:35:45;;;;;;;5.53;3.83;;;;;;;;;;5060728;28;20044;-74
2023/09/21 11:38:18;;;;;;;6.28;3.70;;;;;;;;;;5077623;28;20055;-74
2023/09/21 11:40:50;;;;;;;6.70;3.80;;;;;;;;;;5077710;28;20040;-74
2023/09/21 11:43:23;;;;;;;7.82;3.92;;;;;;;;;;5078937;28;20415;-74
2023/09/21 11:45:54;;;;;;;10.27;4.63;;;;;;;;;;5078953;28;20044;-74
2023/09/21 11:48:29;;;;;;;6.60;3.58;;;;;;;;;;5061049;28;20047;-74
2023/09/21 11:51:05;;;;;;;4.50;3.38;;;;;;;;;;5079834;28;20052;-74
2023/09/21 11:53:35;;;;;;;6.03;3.35;;;;;;;;;;5078510;28;20063;-74
2023/09/21 11:56:07;;;;;;;5.75;3.35;;;;;;;;;;5080085;28;20051;-74
2023/09/21 11:58:38;;;;;;;6.85;3.55;;;;;;;;;;5079614;28;20055;-74
2023/09/21 12:03:40;;;;;;;4.50;3.30;;;;;;;;;;5079298;28;20495;-74
2023/09/21 12:06:12;;;;;;;6.20;3.33;;;;;;;;;;5060572;28;20055;-75
2023/09/21 12:08:44;;;;;;;4.82;3.15;;;;;;;;;;5079562;28;20044;-74
2023/09/21 12:11:14;;;;;;;8.57;3.00;;;;;;;;;;5079586;28;20044;-74
2023/09/21 12:13:44;;;;;;;5.15;3.40;;;;;;;;;;5060930;28;20048;-74
2023/09/21 12:16:15;;;;;;;6.55;3.58;;;;;;;;;;5078971;28;20399;-74
2023/09/21 12:18:47;;;;;;;8.18;3.95;;;;;;;;;;5079178;28;20047;-74
2023/09/21 12:21:20;;;;;;;5.53;3.10;;;;;;;;;;5079343;28;20052;-74
2023/09/21 12:23:51;;;;;;;8.77;3.78;;;;;;;;;;5079248;28;20063;-75
2023/09/21 12:26:22;;;;;;;10.48;5.70;;;;;;;;;;5079039;28;20052;-74
2023/09/21 12:28:53;;;;;;;7.18;3.38;;;;;;;;;;5078928;28;20044;-75
2023/09/21 12:31:25;;;;;;;6.93;3.63;;;;;;;;;;5079238;28;20055;-74
2023/09/21 12:34:14;;;;;;;7.70;3.75;;;;;;;;;;5078517;28;20048;-75
2023/09/21 12:36:48;;;;;;;9.48;3.72;;;;;;;;;;5082278;28;20040;-75
2023/09/21 12:39:19;;;;;;;8.85;4.00;;;;;;;;;;5083171;28;20051;-74
2023/09/21 12:41:50;;;;;;;8.70;4.60;;;;;;;;;;5082357;28;20050;-74
2023/09/21 12:44:22;;;;;;;7.22;3.67;;;;;;;;;;5082293;28;20062;-74
2023/09/21 12:46:52;;;;;;;12.30;4.65;;;;;;;;;;5083283;28;20048;-72
2023/09/21 12:49:22;;;;;;;7.40;4.53;;;;;;;;;;5064812;28;20048;-74
2023/09/21 12:51:54;;;;;;;7.20;4.05;;;;;;;;;;5082606;28;20044;-74
2023/09/21 12:54:26;;;;;;;8.52;4.47;;;;;;;;;;5082511;28;20437;-74
2023/09/21 12:56:57;;;;;;;7.90;4.20;;;;;;;;;;5082245;28;20514;-74
2023/09/21 12:59:29;;;;;;;9.32;4.07;;;;;;;;;;5081895;28;20051;-74
2023/09/21 13:02:00;;;;;;;8.10;4.10;;;;;;;;;;5083002;28;20044;-75
2023/09/21 13:04:30;;;;;;;7.35;3.95;;;;;;;;;;5081862;28;20549;-74
2023/09/21 13:07:02;;;;;;;8.80;3.88;;;;;;;;;;5082151;28;20052;-74
2023/09/21 13:09:33;;;;;;;8.63;4.63;;;;;;;;;;5082405;28;20048;-74
2023/09/21 13:12:20;;;;;;;7.18;4.63;;;;;;;;;;5081904;28;20055;-74
2023/09/21 13:14:51;;;;;;;7.47;4.90;;;;;;;;;;5081722;28;20060;-75
2023/09/21 13:17:23;;;;;;;9.27;4.75;;;;;;;;;;5081378;28;20510;-75
2023/09/21 13:19:54;;;;;;;10.15;7.35;;;;;;;;;;5082019;28;20055;-74
2023/09/21 13:22:25;;;;;;;10.43;4.78;;;;;;;;;;5081787;28;20059;-77
2023/09/21 13:24:57;;;;;;;15.23;5.70;;;;;;;;;;5082577;28;20059;-75
2023/09/21 13:27:28;;;;;;;15.18;5.07;;;;;;;;;;5080996;28;20679;-74
2023/09/21 13:29:59;;;;;;;7.63;4.35;;;;;;;;;;5081842;28;20044;-74
2023/09/21 13:32:30;;;;;;;6.38;4.13;;;;;;;;;;5082135;28;20051;-74
2023/09/21 13:35:03;;;;;;;10.15;4.78;;;;;;;;;;5063783;28;20051;-74
2023/09/21 13:37:34;;;;;;;5.40;4.05;;;;;;;;;;5082200;28;20071;-74
2023/09/21 13:40:06;;;;;;;12.90;4.75;;;;;;;;;;5081576;28;20046;-74
2023/09/21 13:42:40;;;;;;;19.88;8.00;;;;;;;;;;5081635;28;20052;-74
2023/09/21 13:45:12;;;;;;;6.97;4.30;;;;;;;;;;5081387;28;20518;-74
2023/09/21 13:47:43;;;;;;;10.18;4.38;;;;;;;;;;5080041;28;20082;-74
2023/09/21 13:50:14;;;;;;;8.02;4.50;;;;;;;;;;5062275;28;20053;-74
2023/09/21 13:52:45;;;;;;;13.63;4.85;;;;;;;;;;5062563;28;20060;-80
2023/09/21 13:55:16;;;;;;;10.60;5.82;;;;;;;;;;5062097;28;20059;-78
2023/09/21 13:57:52;;;;;;;9.80;4.40;;;;;;;;;;5080685;28;20052;-74
2023/09/21 14:00:24;;;;;;;9.45;4.72;;;;;;;;;;5063660;28;20048;-74
2023/09/21 14:02:55;;;;;;;7.60;4.72;;;;;;;;;;5080865;28;20044;-74
2023/09/21 14:05:27;;;;;;;9.35;4.40;;;;;;;;;;5080820;28;20431;-74
2023/09/21 14:07:58;;;;;;;13.65;4.43;;;;;;;;;;5080781;28;20048;-74
2023/09/21 14:10:30;;;;;;;6.38;4.88;;;;;;;;;;5079677;28;20063;-75
2023/09/21 14:13:01;;;;;;;7.15;4.68;;;;;;;;;;5080801;28;20043;-74
2023/09/21 14:15:32;;;;;;;12.02;6.00;;;;;;;;;;5081464;28;20052;-74
2023/09/21 14:18:03;;;;;;;12.05;5.28;;;;;;;;;;5080790;28;20062;-74
2023/09/21 14:20:34;;;;;;;12.60;5.07;;;;;;;;;;5080948;28;20048;-74
2023/09/21 14:23:04;;;;;;;10.23;5.65;;;;;;;;;;5062237;28;20056;-74
2023/09/21 14:25:36;;;;;;;7.75;4.97;;;;;;;;;;5080840;28;20495;-74
2023/09/21 14:28:05;;;;;;;8.23;4.88;;;;;;;;;;5080817;28;20052;-74
2023/09/21 14:30:36;;;;;;;8.70;4.93;;;;;;;;;;5061508;28;20056;-74
2023/09/21 14:33:07;;;;;;;13.93;5.32;;;;;;;;;;5080605;28;20055;-74
2023/09/21 14:35:38;;;;;;;10.27;5.13;;;;;;;;;;5083012;28;20052;-76
2023/09/21 14:38:11;;;;;;;7.38;4.95;;;;;;;;;;5065699;28;20052;-75
2023/09/21 14:40:41;;;;;;;9.63;4.55;;;;;;;;;;5083538;28;20066;-74
2023/09/21 14:43:12;;;;;;;7.47;5.35;;;;;;;;;;5083343;28;20048;-74
2023/09/21 14:45:42;;;;;;;9.40;5.72;;;;;;;;;;5083338;28;20056;-74
2023/09/21 14:48:14;;;;;;;10.02;5.53;;;;;;;;;;5083015;28;20048;-79
2023/09/21 14:50:44;;;;;;;10.02;5.38;;;;;;;;;;5082616;28;20062;-73
2023/09/21 14:53:14;;;;;;;7.40;5.18;;;;;;;;;;5083151;28;20700;-74
2023/09/21 14:55:45;;;;;;;12.63;7.85;;;;;;;;;;5082984;28;20052;-74
2023/09/21 14:58:17;;;;;;;19.63;11.35;;;;;;;;;;5084484;28;20637;-76
2023/09/21 15:00:48;;;;;;;14.15;6.90;;;;;;;;;;5083111;28;20403;-76
2023/09/21 15:03:18;;;;;;;10.43;5.22;;;;;;;;;;5082403;28;20051;-75
2023/09/21 15:05:51;;;;;;;9.15;4.68;;;;;;;;;;5082435;28;20051;-74
2023/09/21 15:08:22;;;;;;;12.27;6.25;;;;;;;;;;5065754;28;20065;-74